Time;durP1;ratioP1;P1;durP2;ratioP2;P2;SDS_P1;SDS_P2;PMS_P1;PMS_P2;Temp;Humidity;BMP_temperature;BMP_pressure;BME280_temperature;BME280_humidity;BME280_pressure;Samples;Min_cycle;Max_cycle;Signal;HPM_P1;HPM_P2
2022/08/10 00:01:23;;;;;;;8.83;3.63;;;24.80;1.00;;;;;;5085857;28;20413;-72
2022/08/10 00:03:49;;;;;;;4.30;3.80;;;24.80;1.00;;;;;;5095473;28;20178;-71
2022/08/10 00:06:14;;;;;;;5.80;3.90;;;24.80;1.00;;;;;;5085440;28;20289;-73
2022/08/10 00:08:40;;;;;;;5.77;3.70;;;24.80;1.00;;;;;;5090629;28;20198;-73
2022/08/10 00:11:06;;;;;;;5.17;3.20;;;24.90;1.00;;;;;;5083887;28;20620;-72
2022/08/10 00:13:31;;;;;;;5.40;3.10;;;24.70;1.00;;;;;;5090303;28;20604;-72
2022/08/10 00:15:57;;;;;;;4.47;3.57;;;24.70;1.00;;;;;;5092685;28;20496;-72
2022/08/10 00:18:24;;;;;;;5.20;3.40;;;24.70;1.00;;;;;;5085175;28;20207;-72
2022/08/10 00:20:50;;;;;;;6.50;3.47;;;24.70;1.00;;;;;;5081676;28;20184;-72
2022/08/10 00:23:16;;;;;;;5.10;3.40;;;24.60;1.00;;;;;;5086259;28;20504;-72
2022/08/10 00:25:41;;;;;;;3.50;3.20;;;24.60;1.00;;;;;;5082946;28;20180;-72
2022/08/10 00:28:07;;;;;;;5.87;3.90;;;24.50;1.00;;;;;;5087140;28;21037;-72
2022/08/10 00:30:32;;;;;;;4.27;3.47;;;24.50;1.00;;;;;;5091948;28;20178;-72
2022/08/10 00:32:58;;;;;;;4.80;3.40;;;24.50;1.00;;;;;;5100318;28;20534;-72
2022/08/10 00:35:24;;;;;;;4.00;3.33;;;24.40;1.00;;;;;;5097617;28;20249;-73
2022/08/10 00:37:49;;;;;;;4.83;3.30;;;24.40;1.00;;;;;;5080554;28;20182;-72
2022/08/10 00:40:15;;;;;;;4.67;3.43;;;24.40;1.00;;;;;;5090453;28;20668;-72
2022/08/10 00:42:40;;;;;;;3.90;3.00;;;24.60;1.00;;;;;;5085453;28;20206;-73
2022/08/10 00:45:06;;;;;;;3.90;3.23;;;24.40;1.00;;;;;;5092123;28;20839;-72
2022/08/10 00:47:32;;;;;;;6.50;3.70;;;24.40;1.00;;;;;;5086910;28;20191;-72
2022/08/10 00:49:57;;;;;;;5.87;3.57;;;24.30;1.00;;;;;;5092637;28;20642;-72
2022/08/10 00:52:24;;;;;;;5.80;3.43;;;24.30;1.00;;;;;;5085844;28;20281;-72
2022/08/10 00:54:50;;;;;;;9.77;3.63;;;24.30;1.00;;;;;;5084491;28;20180;-72
2022/08/10 00:57:16;;;;;;;5.17;4.10;;;24.20;1.00;;;;;;5088713;28;20944;-72
2022/08/10 00:59:42;;;;;;;6.40;3.50;;;24.20;1.00;;;;;;5085712;28;20288;-72
2022/08/10 01:02:08;;;;;;;6.13;3.30;;;24.20;1.00;;;;;;5095187;28;20976;-72
2022/08/10 01:04:33;;;;;;;4.97;3.07;;;24.80;1.00;;;;;;5092202;28;20535;-72
2022/08/10 01:07:32;;;;;;;6.60;3.40;;;24.20;1.00;;;;;;5081221;28;20433;-72
2022/08/10 01:10:27;;;;;;;10.70;3.50;;;24.20;1.00;;;;;;5084416;28;20932;-72
2022/08/10 01:13:17;;;;;;;4.87;3.30;;;24.20;1.00;;;;;;5085560;28;20453;-72
2022/08/10 01:16:04;;;;;;;4.07;3.27;;;24.20;1.00;;;;;;5082828;28;20796;-72
2022/08/10 01:18:53;;;;;;;4.00;3.53;;;24.10;1.00;;;;;;5092305;28;20456;-72
2022/08/10 01:21:52;;;;;;;5.87;3.30;;;24.10;1.00;;;;;;5083151;28;20975;-73
2022/08/10 01:24:29;;;;;;;5.00;3.67;;;24.10;1.00;;;;;;5082948;28;20437;-72
2022/08/10 01:27:32;;;;;;;5.13;3.50;;;24.00;1.00;;;;;;5085154;28;20815;-72
2022/08/10 01:30:12;;;;;;;4.67;3.70;;;24.00;1.00;;;;;;5086071;28;20504;-72
2022/08/10 01:32:45;;;;;;;4.93;3.60;;;24.00;1.00;;;;;;5086037;28;20469;-72
2022/08/10 01:35:19;;;;;;;5.67;3.40;;;24.00;1.00;;;;;;5085118;28;20438;-72
2022/08/10 01:37:57;;;;;;;6.40;3.50;;;23.90;1.00;;;;;;5079857;28;20410;-72
2022/08/10 01:40:26;;;;;;;6.07;3.60;;;23.90;1.00;;;;;;5083967;28;20465;-72
2022/08/10 01:42:55;;;;;;;5.20;3.60;;;23.90;1.00;;;;;;5089372;28;20426;-72
2022/08/10 01:45:23;;;;;;;5.53;3.50;;;23.90;1.00;;;;;;5086766;28;20507;-72
2022/08/10 01:50:45;;;;;;;5.30;3.80;;;23.80;1.00;;;;;;5085009;28;20437;-73
2022/08/10 01:53:15;;;;;;;7.90;3.30;;;23.80;1.00;;;;;;5083412;28;20843;-72
2022/08/10 01:55:42;;;;;;;9.10;3.77;;;23.70;1.00;;;;;;5083882;28;20800;-72
2022/08/10 01:58:09;;;;;;;4.53;3.30;;;23.70;1.00;;;;;;5091494;28;20424;-72
2022/08/10 02:00:38;;;;;;;7.23;3.80;;;23.70;1.00;;;;;;5074930;28;20859;-73
2022/08/10 02:03:05;;;;;;;7.83;3.50;;;23.80;1.00;;;;;;5090481;28;20445;-73
2022/08/10 02:05:32;;;;;;;7.53;3.70;;;23.70;1.00;;;;;;5075336;28;20521;-72
2022/08/10 02:08:00;;;;;;;5.10;3.33;;;23.60;1.00;;;;;;5088652;28;20753;-72
2022/08/10 02:10:27;;;;;;;4.60;3.57;;;23.70;1.00;;;;;;5083385;28;20483;-72
2022/08/10 02:12:56;;;;;;;3.50;3.20;;;23.60;1.00;;;;;;5089311;28;20433;-72
2022/08/10 02:15:24;;;;;;;5.80;3.30;;;23.60;1.00;;;;;;5086401;28;20453;-72
2022/08/10 02:17:57;;;;;;;4.53;3.50;;;23.50;1.00;;;;;;5087772;28;20490;-72
2022/08/10 02:20:26;;;;;;;4.27;3.37;;;23.50;1.00;;;;;;5078239;28;20461;-72
2022/08/10 02:22:58;;;;;;;5.30;3.33;;;23.50;1.00;;;;;;5089772;28;20973;-72
2022/08/10 02:25:26;;;;;;;4.70;3.60;;;23.40;1.00;;;;;;5080168;28;20433;-73
2022/08/10 02:27:53;;;;;;;4.17;3.23;;;23.40;1.00;;;;;;5090663;28;20979;-72
2022/08/10 02:30:21;;;;;;;5.80;3.40;;;23.40;1.00;;;;;;5087771;28;20436;-72
2022/08/10 02:32:48;;;;;;;7.97;3.30;;;23.40;1.00;;;;;;5098683;28;20514;-72
2022/08/10 02:35:15;;;;;;;4.43;3.60;;;23.30;1.00;;;;;;5087327;28;20437;-72
2022/08/10 02:37:45;;;;;;;8.20;4.00;;;23.30;1.00;;;;;;5089923;28;20496;-72
2022/08/10 02:40:10;;;;;;;5.40;3.53;;;23.30;1.00;;;;;;5085847;28;20461;-72
2022/08/10 02:42:49;;;;;;;4.40;3.40;;;23.30;1.00;;;;;;5089607;28;20448;-72
2022/08/10 02:45:29;;;;;;;4.07;3.47;;;24.30;1.00;;;;;;5087290;28;20171;-72
2022/08/10 02:47:58;;;;;;;5.50;3.40;;;23.20;1.00;;;;;;5081857;28;20450;-72
2022/08/10 02:50:35;;;;;;;6.60;3.30;;;23.20;1.00;;;;;;5088461;28;20834;-72
2022/08/10 02:53:27;;;;;;;4.77;3.57;;;23.20;1.00;;;;;;5080814;28;20456;-72
2022/08/10 02:56:01;;;;;;;8.33;3.70;;;23.20;1.00;;;;;;5084058;28;20947;-72
2022/08/10 02:58:43;;;;;;;4.67;3.60;;;23.20;1.00;;;;;;5086900;28;20440;-72
2022/08/10 03:01:17;;;;;;;5.23;3.30;;;23.20;1.00;;;;;;5079159;28;20429;-71
2022/08/10 03:03:48;;;;;;;4.80;3.30;;;23.30;1.00;;;;;;5090058;28;20435;-72
2022/08/10 03:06:19;;;;;;;7.80;3.70;;;23.10;1.00;;;;;;5089295;28;20493;-72
2022/08/10 03:08:46;;;;;;;6.53;3.20;;;23.00;1.00;;;;;;5086191;28;20460;-72
2022/08/10 03:11:19;;;;;;;13.27;3.67;;;23.10;1.00;;;;;;5084181;28;20852;-72
2022/08/10 03:13:46;;;;;;;4.30;3.73;;;23.00;1.00;;;;;;5087087;28;20980;-72
2022/08/10 03:16:13;;;;;;;4.73;3.53;;;23.00;1.00;;;;;;5082808;28;20469;-72
2022/08/10 03:18:39;;;;;;;5.33;3.53;;;23.00;1.00;;;;;;5082556;28;20857;-71
2022/08/10 03:21:06;;;;;;;4.70;3.60;;;23.00;1.00;;;;;;5088345;28;20401;-72
2022/08/10 03:23:32;;;;;;;7.00;3.57;;;23.00;1.00;;;;;;5087528;28;20433;-72
2022/08/10 03:25:59;;;;;;;8.47;3.20;;;23.00;1.00;;;;;;5083219;28;20927;-72
2022/08/10 03:28:28;;;;;;;4.70;3.70;;;23.00;1.00;;;;;;5085107;28;20935;-72
2022/08/10 03:30:55;;;;;;;4.70;3.83;;;23.00;1.00;;;;;;5082040;28;20570;-71
2022/08/10 03:33:23;;;;;;;5.53;3.20;;;23.00;1.00;;;;;;5095168;28;20432;-72
2022/08/10 03:35:49;;;;;;;4.40;3.40;;;22.40;1.00;;;;;;5086846;27;20994;-72
2022/08/10 03:38:15;;;;;;;6.90;3.83;;;22.90;1.00;;;;;;5087473;28;20424;-72
2022/08/10 03:40:43;;;;;;;4.30;3.27;;;23.00;1.00;;;;;;5084804;28;20449;-72
2022/08/10 03:43:12;;;;;;;6.60;3.53;;;22.90;1.00;;;;;;5085368;28;20236;-72
2022/08/10 03:45:39;;;;;;;3.77;3.37;;;23.00;1.00;;;;;;5084630;28;20452;-72
2022/08/10 03:48:07;;;;;;;9.63;3.33;;;22.90;1.00;;;;;;5083191;28;20852;-72
2022/08/10 03:50:34;;;;;;;3.90;3.43;;;22.80;1.00;;;;;;5086763;28;20409;-72
2022/08/10 03:53:00;;;;;;;5.30;3.40;;;22.70;1.00;;;;;;5086276;28;20445;-72
2022/08/10 03:55:26;;;;;;;5.40;4.20;;;22.70;1.00;;;;;;5083389;28;20433;-72
2022/08/10 03:57:52;;;;;;;9.03;3.73;;;22.70;1.00;;;;;;5086127;28;20175;-72
2022/08/10 04:00:17;;;;;;;6.13;3.70;;;22.70;1.00;;;;;;5080207;28;20860;-73
2022/08/10 04:02:48;;;;;;;5.03;3.40;;;22.70;1.00;;;;;;5087012;28;20604;-72
2022/08/10 04:05:14;;;;;;;5.63;3.50;;;22.60;1.00;;;;;;5084251;28;20363;-72
2022/08/10 04:07:43;;;;;;;4.20;3.20;;;22.60;1.00;;;;;;5086600;28;20405;-73
2022/08/10 04:10:09;;;;;;;4.53;3.30;;;22.60;1.00;;;;;;5088061;28;20789;-72
2022/08/10 04:12:35;;;;;;;3.80;3.20;;;22.50;1.00;;;;;;5087259;28;20432;-72
2022/08/10 04:15:01;;;;;;;4.90;3.80;;;22.60;1.00;;;;;;5084009;28;20182;-71
2022/08/10 04:17:26;;;;;;;7.53;3.40;;;22.50;1.00;;;;;;5086757;28;20183;-72
2022/08/10 04:19:54;;;;;;;6.73;3.90;;;22.50;1.00;;;;;;5085761;28;20195;-72
2022/08/10 04:22:22;;;;;;;4.00;3.47;;;22.60;1.00;;;;;;5084866;28;20283;-72
2022/08/10 04:24:53;;;;;;;7.60;3.57;;;22.60;1.00;;;;;;5077623;28;20555;-72
2022/08/10 04:27:19;;;;;;;4.67;3.17;;;22.50;1.00;;;;;;5087558;28;20482;-72
2022/08/10 04:29:46;;;;;;;5.87;3.57;;;22.60;1.00;;;;;;5085475;28;20480;-72
2022/08/10 04:32:15;;;;;;;4.10;3.50;;;22.60;1.00;;;;;;5096096;28;20247;-72
2022/08/10 04:34:43;;;;;;;4.70;3.73;;;22.60;1.00;;;;;;5082138;28;20430;-72
2022/08/10 04:37:11;;;;;;;5.77;3.53;;;22.60;1.00;;;;;;5071689;28;20433;-71
2022/08/10 04:39:38;;;;;;;3.73;3.30;;;22.60;1.00;;;;;;5073929;28;20458;-72
2022/08/10 04:42:05;;;;;;;4.67;3.47;;;22.60;1.00;;;;;;5087209;28;20475;-72
2022/08/10 04:44:31;;;;;;;4.23;3.30;;;22.60;1.00;;;;;;5080298;28;20591;-72
2022/08/10 04:46:56;;;;;;;6.53;3.50;;;22.60;1.00;;;;;;5087545;28;20432;-72
2022/08/10 04:49:22;;;;;;;5.37;3.90;;;22.60;1.00;;;;;;5079829;28;20438;-72
2022/08/10 04:51:48;;;;;;;4.03;3.20;;;22.60;1.00;;;;;;5085116;28;20195;-72
2022/08/10 04:54:13;;;;;;;4.20;3.40;;;22.70;1.00;;;;;;5085207;28;20184;-72
2022/08/10 04:56:39;;;;;;;5.93;3.50;;;22.70;1.00;;;;;;5088332;28;20325;-72
2022/08/10 04:59:08;;;;;;;5.50;3.27;;;22.70;1.00;;;;;;5089224;28;20460;-71
2022/08/10 05:01:35;;;;;;;4.23;3.47;;;22.70;1.00;;;;;;5083933;28;20202;-72
2022/08/10 05:04:01;;;;;;;5.23;3.67;;;22.40;1.00;;;;;;5088816;28;20432;-73
2022/08/10 05:06:26;;;;;;;7.93;3.87;;;22.80;1.00;;;;;;5086090;28;20412;-73
2022/08/10 05:08:52;;;;;;;6.90;3.67;;;22.70;1.00;;;;;;5088913;28;20484;-72
2022/08/10 05:11:18;;;;;;;6.17;3.60;;;22.70;1.00;;;;;;5084555;28;20179;-72
2022/08/10 05:13:43;;;;;;;7.60;3.80;;;22.80;1.00;;;;;;5086463;28;20673;-73
2022/08/10 05:16:09;;;;;;;7.10;3.70;;;22.80;1.00;;;;;;5088430;28;20183;-72
2022/08/10 05:18:34;;;;;;;5.07;4.07;;;22.80;1.00;;;;;;5086558;28;20190;-71
2022/08/10 05:21:00;;;;;;;4.37;3.50;;;23.00;1.00;;;;;;5089242;28;20663;-71
2022/08/10 05:23:25;;;;;;;6.23;4.30;;;22.90;1.00;;;;;;5087043;28;20198;-71
2022/08/10 05:25:51;;;;;;;4.40;3.50;;;22.90;1.00;;;;;;5085347;28;20451;-77
2022/08/10 05:28:16;;;;;;;6.63;3.60;;;23.00;1.00;;;;;;5084406;28;20600;-72
2022/08/10 05:30:42;;;;;;;4.20;3.20;;;23.00;1.00;;;;;;5087952;28;20281;-74
2022/08/10 05:33:07;;;;;;;4.40;3.30;;;23.10;1.00;;;;;;5088566;28;20217;-75
2022/08/10 05:35:33;;;;;;;6.00;3.50;;;23.10;1.00;;;;;;5090278;28;20184;-75
2022/08/10 05:38:00;;;;;;;6.17;3.27;;;23.20;1.00;;;;;;5088441;28;20198;-75
2022/08/10 05:40:27;;;;;;;4.93;3.67;;;23.30;1.00;;;;;;5089351;28;20199;-76
2022/08/10 05:42:53;;;;;;;4.80;4.07;;;23.30;1.00;;;;;;5090209;28;20443;-75
2022/08/10 05:45:22;;;;;;;7.03;4.30;;;23.40;1.00;;;;;;5090570;28;20915;-74
2022/08/10 05:47:48;;;;;;;5.57;3.57;;;23.40;1.00;;;;;;5074507;28;20579;-75
2022/08/10 05:50:17;;;;;;;7.47;3.50;;;23.50;1.00;;;;;;5084397;28;20509;-74
2022/08/10 05:52:44;;;;;;;4.63;3.50;;;23.60;1.00;;;;;;5087197;28;20188;-73
2022/08/10 05:55:10;;;;;;;5.30;3.40;;;23.60;1.00;;;;;;5070668;28;20440;-73
2022/08/10 05:57:36;;;;;;;5.47;3.80;;;23.70;1.00;;;;;;5087011;28;20417;-72
2022/08/10 06:00:06;;;;;;;5.17;3.20;;;23.70;1.00;;;;;;5077740;28;20467;-73
2022/08/10 06:02:40;;;;;;;4.90;3.40;;;23.70;1.00;;;;;;5082095;28;20191;-72
2022/08/10 06:05:13;;;;;;;3.47;3.17;;;23.80;1.00;;;;;;5073907;28;20405;-73
2022/08/10 06:07:50;;;;;;;3.93;3.10;;;23.80;1.00;;;;;;5082051;28;20911;-72
2022/08/10 06:10:17;;;;;;;4.10;3.07;;;23.90;1.00;;;;;;5091279;28;20453;-72
2022/08/10 06:12:46;;;;;;;5.10;3.40;;;24.00;1.00;;;;;;5082405;28;20460;-72
2022/08/10 06:15:13;;;;;;;4.20;3.20;;;24.10;1.00;;;;;;5081946;28;20430;-72
2022/08/10 06:17:39;;;;;;;6.53;3.87;;;24.10;1.00;;;;;;5098706;28;20464;-72
2022/08/10 06:20:06;;;;;;;5.03;3.93;;;24.10;1.00;;;;;;5086167;28;20985;-73
2022/08/10 06:22:32;;;;;;;9.07;3.70;;;24.30;1.00;;;;;;5084271;28;20461;-72
2022/08/10 06:25:00;;;;;;;5.17;3.10;;;24.30;1.00;;;;;;5085281;28;20460;-72
2022/08/10 06:27:26;;;;;;;6.50;3.60;;;24.40;1.00;;;;;;5090242;28;20910;-73
2022/08/10 06:29:53;;;;;;;8.93;3.63;;;24.50;1.00;;;;;;5086365;28;20521;-72
2022/08/10 06:32:24;;;;;;;9.20;3.40;;;24.70;1.00;;;;;;5095832;28;20621;-72
2022/08/10 06:34:53;;;;;;;6.03;3.30;;;24.70;1.00;;;;;;5088828;28;20521;-73
2022/08/10 06:37:24;;;;;;;4.17;3.20;;;24.90;1.00;;;;;;5088461;28;20416;-73
2022/08/10 06:39:50;;;;;;;5.80;3.60;;;24.90;1.00;;;;;;5084010;28;20549;-72
2022/08/10 06:42:22;;;;;;;6.37;3.67;;;25.00;1.00;;;;;;5089331;28;20600;-72
2022/08/10 06:44:57;;;;;;;4.57;3.03;;;25.10;1.00;;;;;;5084796;28;20172;-73
2022/08/10 06:47:29;;;;;;;5.43;3.20;;;25.20;1.00;;;;;;5079754;28;20426;-73
2022/08/10 06:50:01;;;;;;;4.53;3.57;;;25.40;1.00;;;;;;5079012;28;20962;-73
2022/08/10 06:52:29;;;;;;;4.23;3.10;;;25.40;1.00;;;;;;5076175;28;20449;-73
2022/08/10 06:54:57;;;;;;;5.83;3.37;;;25.60;1.00;;;;;;5074693;28;20816;-73
2022/08/10 06:57:25;;;;;;;3.80;3.00;;;25.70;1.00;;;;;;5083463;28;20935;-72
2022/08/10 06:59:52;;;;;;;5.50;3.30;;;25.90;1.00;;;;;;5079633;28;20461;-73
2022/08/10 07:02:25;;;;;;;8.93;3.40;;;25.90;1.00;;;;;;5083353;28;20540;-73
2022/08/10 07:04:58;;;;;;;3.70;3.00;;;26.10;1.00;;;;;;5087045;28;20417;-73
2022/08/10 07:07:26;;;;;;;5.60;3.53;;;26.10;1.00;;;;;;5073163;28;20202;-73
2022/08/10 07:09:53;;;;;;;4.80;3.10;;;26.30;1.00;;;;;;5078575;28;20180;-73
2022/08/10 07:12:20;;;;;;;3.53;3.20;;;26.60;1.00;;;;;;5075388;28;20460;-73
2022/08/10 07:14:47;;;;;;;5.57;3.77;;;26.70;1.00;;;;;;5073169;28;20253;-73
2022/08/10 07:17:18;;;;;;;4.67;3.13;;;26.80;1.00;;;;;;5083443;28;20417;-73
2022/08/10 07:19:53;;;;;;;5.40;3.10;;;26.80;1.00;;;;;;5082505;28;20464;-73
2022/08/10 07:22:23;;;;;;;5.10;2.97;;;26.90;1.00;;;;;;5083757;28;20206;-73
2022/08/10 07:24:50;;;;;;;6.13;3.40;;;27.10;1.00;;;;;;5082854;28;20188;-73
2022/08/10 07:27:17;;;;;;;5.70;3.43;;;27.30;1.00;;;;;;5080956;28;20447;-73
2022/08/10 07:29:44;;;;;;;8.70;3.20;;;27.30;1.00;;;;;;5082524;28;20184;-73
2022/08/10 07:32:12;;;;;;;5.33;3.30;;;27.50;1.00;;;;;;5077845;28;20685;-73
2022/08/10 07:34:39;;;;;;;5.20;3.40;;;27.70;1.00;;;;;;5093900;28;20186;-73
2022/08/10 07:37:07;;;;;;;5.20;3.33;;;27.90;1.00;;;;;;5081051;28;20178;-73
2022/08/10 07:39:36;;;;;;;5.13;2.93;;;27.90;1.00;;;;;;5080190;28;20199;-74
2022/08/10 07:42:04;;;;;;;5.53;3.07;;;28.00;1.00;;;;;;5076367;28;20314;-73
2022/08/10 07:44:32;;;;;;;9.07;3.50;;;28.20;1.00;;;;;;5076895;28;20182;-73
2022/08/10 07:47:00;;;;;;;4.30;3.10;;;28.30;1.00;;;;;;5077582;28;20182;-73
2022/08/10 07:49:35;;;;;;;3.80;3.13;;;28.50;1.00;;;;;;5085245;28;20175;-72
2022/08/10 07:52:05;;;;;;;9.13;3.17;;;28.60;1.00;;;;;;5078448;28;20190;-73
2022/08/10 07:54:36;;;;;;;5.97;2.90;;;28.80;1.00;;;;;;5088910;28;20533;-73
2022/08/10 07:57:05;;;;;;;5.20;3.10;;;28.90;1.00;;;;;;5074875;28;20729;-73
2022/08/10 07:59:40;;;;;;;8.20;3.23;;;28.90;1.00;;;;;;5072406;28;20199;-73
2022/08/10 08:02:12;;;;;;;5.43;2.90;;;29.20;1.00;;;;;;5080011;28;20242;-73
2022/08/10 08:04:38;;;;;;;5.77;2.83;;;29.50;1.00;;;;;;5077357;28;20226;-73
2022/08/10 08:07:07;;;;;;;4.40;3.03;;;29.40;1.00;;;;;;5087572;28;20646;-73
2022/08/10 08:09:36;;;;;;;4.00;3.30;;;29.40;1.00;;;;;;5083697;28;20172;-73
2022/08/10 08:12:03;;;;;;;5.15;2.90;;;29.60;1.00;;;;;;5091477;28;20256;-73
2022/08/10 08:14:30;;;;;;;6.03;3.05;;;29.90;1.00;;;;;;5081477;28;20188;-73
2022/08/10 08:16:57;;;;;;;12.85;3.22;;;30.30;1.00;;;;;;5086675;28;20194;-73
2022/08/10 08:19:23;;;;;;;6.32;3.30;;;30.60;1.00;;;;;;5076844;28;20291;-73
2022/08/10 08:21:50;;;;;;;4.57;2.90;;;31.10;1.00;;;;;;5085405;28;20226;-73
2022/08/10 08:24:18;;;;;;;5.43;3.40;;;31.60;1.00;;;;;;5081202;28;20186;-74
2022/08/10 08:26:46;;;;;;;5.35;3.33;;;32.40;1.00;;;;;;5087250;28;20767;-73
2022/08/10 08:29:13;;;;;;;6.78;3.08;;;33.30;1.00;;;;;;5084887;28;20261;-74
2022/08/10 08:31:39;;;;;;;5.03;2.47;;;34.40;1.00;;;;;;5085818;28;20207;-74
2022/08/10 08:34:06;;;;;;;2.92;2.50;;;35.20;1.00;;;;;;5094249;28;20270;-74
2022/08/10 08:36:33;;;;;;;8.88;2.60;;;36.30;1.00;;;;;;5089902;28;20179;-74
2022/08/10 08:38:59;;;;;;;3.47;2.67;;;36.60;1.00;;;;;;5080727;28;20608;-74
2022/08/10 08:41:50;;;;;;;9.98;2.88;;;36.70;1.00;;;;;;5084631;28;20167;-73
2022/08/10 08:44:34;;;;;;;6.85;2.80;;;37.60;1.00;;;;;;5079179;28;20171;-74
2022/08/10 08:47:10;;;;;;;6.22;2.90;;;38.20;1.00;;;;;;5083373;28;20490;-74
2022/08/10 08:49:42;;;;;;;6.00;2.53;;;38.40;1.00;;;;;;5091194;28;20257;-74
2022/08/10 08:52:30;;;;;;;8.18;2.72;;;39.10;1.00;;;;;;5085868;28;20214;-74
2022/08/10 08:55:17;;;;;;;4.32;2.63;;;38.90;1.00;;;;;;5087585;28;20186;-75
2022/08/10 08:58:04;;;;;;;3.47;2.33;;;38.60;1.00;;;;;;5090188;28;20183;-74
2022/08/10 09:00:39;;;;;;;4.28;2.60;;;38.60;1.00;;;;;;5079122;28;20195;-74
2022/08/10 09:03:13;;;;;;;4.35;2.58;;;39.00;1.00;;;;;;5083719;28;20191;-75
2022/08/10 09:06:07;;;;;;;6.10;2.50;;;39.70;1.00;;;;;;5087442;28;20641;-75
2022/08/10 09:08:47;;;;;;;8.52;2.47;;;40.00;1.00;;;;;;5102860;27;20664;-75
2022/08/10 09:11:18;;;;;;;5.28;2.67;;;39.70;1.00;;;;;;5084239;28;20202;-74
2022/08/10 09:14:10;;;;;;;3.35;2.30;;;39.60;1.00;;;;;;5083033;28;20229;-74
2022/08/10 09:16:56;;;;;;;9.10;2.45;;;39.80;1.00;;;;;;5088199;28;20720;-75
2022/08/10 09:19:33;;;;;;;7.75;2.55;;;40.60;1.00;;;;;;5084200;28;20217;-75
2022/08/10 09:22:24;;;;;;;2.55;2.13;;;41.00;1.00;;;;;;5083037;28;20210;-74
2022/08/10 09:25:12;;;;;;;8.15;2.50;;;40.90;1.00;;;;;;5084983;28;20243;-75
2022/08/10 09:27:44;;;;;;;10.70;2.80;;;41.20;1.00;;;;;;5081097;28;20189;-73
2022/08/10 09:30:15;;;;;;;6.03;2.50;;;41.40;1.00;;;;;;5080823;28;20182;-75
2022/08/10 09:32:56;;;;;;;4.65;2.60;;;41.80;1.00;;;;;;5084711;28;20203;-74
2022/08/10 09:35:51;;;;;;;3.50;2.67;;;41.80;1.00;;;;;;5081970;28;20249;-75
2022/08/10 09:38:45;;;;;;;4.78;2.45;;;41.70;1.00;;;;;;5070206;28;20467;-75
2022/08/10 09:41:38;;;;;;;4.95;2.40;;;41.60;1.00;;;;;;5083734;28;20206;-75
2022/08/10 09:44:19;;;;;;;5.53;2.00;;;41.90;1.00;;;;;;5069814;28;20172;-75
2022/08/10 09:47:18;;;;;;;3.33;2.50;;;42.40;1.00;;;;;;5078490;28;20175;-75
2022/08/10 09:50:05;;;;;;;3.78;2.13;;;42.10;1.00;;;;;;5074908;28;20214;-75
2022/08/10 09:52:52;;;;;;;3.15;2.35;;;42.00;1.00;;;;;;5080941;28;20207;-75
2022/08/10 09:55:34;;;;;;;7.78;2.60;;;41.60;1.00;;;;;;5086951;28;20202;-75
2022/08/10 09:58:27;;;;;;;4.03;2.50;;;41.70;1.00;;;;;;5081847;28;20175;-75
2022/08/10 10:01:16;;;;;;;4.93;2.45;;;42.30;1.00;;;;;;5080887;28;20273;-75
2022/08/10 10:03:46;;;;;;;10.50;2.63;;;42.60;1.00;;;;;;5080173;28;20191;-75
2022/08/10 10:06:26;;;;;;;5.75;2.40;;;42.90;1.00;;;;;;5086485;28;20206;-75
2022/08/10 10:09:01;;;;;;;4.10;2.50;;;43.50;1.00;;;;;;5091180;28;20198;-74
2022/08/10 10:11:34;;;;;;;4.38;2.70;;;44.20;1.00;;;;;;5083177;28;20239;-74
2022/08/10 10:14:23;;;;;;;5.70;2.40;;;44.50;1.00;;;;;;5086790;28;20175;-74
2022/08/10 10:17:25;;;;;;;4.03;2.30;;;44.50;1.00;;;;;;5088961;28;20270;-74
2022/08/10 10:20:02;;;;;;;5.47;2.80;;;44.20;1.00;;;;;;5085731;28;20589;-75
2022/08/10 10:22:56;;;;;;;6.13;2.63;;;44.00;1.00;;;;;;5085556;28;20653;-74
2022/08/10 10:25:35;;;;;;;6.50;2.60;;;43.10;1.00;;;;;;5084582;28;20176;-74
2022/08/10 10:28:48;;;;;;;3.60;2.30;;;43.10;1.00;;;;;;5084285;28;20266;-74
2022/08/10 10:31:51;;;;;;;4.43;2.85;;;43.30;1.00;;;;;;5068738;28;20754;-73
2022/08/10 10:34:24;;;;;;;6.43;2.42;;;43.80;1.00;;;;;;5096061;28;20183;-74
2022/08/10 10:36:51;;;;;;;3.95;2.35;;;44.10;1.00;;;;;;5089799;28;20183;-74
2022/08/10 10:39:20;;;;;;;4.40;2.60;;;43.70;1.00;;;;;;5087421;28;20287;-74
2022/08/10 10:42:13;;;;;;;4.85;2.40;;;43.90;1.00;;;;;;5086060;28;20661;-74
2022/08/10 10:44:57;;;;;;;6.63;2.22;;;44.20;1.00;;;;;;5082011;28;20265;-74
2022/08/10 10:47:45;;;;;;;6.38;2.47;;;43.80;1.00;;;;;;5086072;28;20176;-75
2022/08/10 10:50:14;;;;;;;8.23;2.20;;;43.70;1.00;;;;;;5083835;28;20187;-75
2022/08/10 10:53:05;;;;;;;3.58;2.35;;;44.50;1.00;;;;;;5082786;28;20207;-74
2022/08/10 10:55:49;;;;;;;3.65;2.00;;;45.40;1.00;;;;;;5085170;28;20609;-75
2022/08/10 10:58:47;;;;;;;5.15;2.70;;;45.60;1.00;;;;;;5085534;28;20268;-75
2022/08/10 11:01:33;;;;;;;4.28;2.05;;;45.80;1.00;;;;;;5082652;28;20183;-74
2022/08/10 11:04:21;;;;;;;4.22;2.30;;;46.10;1.00;;;;;;5086104;28;20722;-74
2022/08/10 11:07:14;;;;;;;5.18;2.60;;;45.50;1.00;;;;;;5088869;28;20186;-75
2022/08/10 11:09:45;;;;;;;7.55;2.38;;;45.30;1.00;;;;;;5087821;28;20573;-75
2022/08/10 11:12:39;;;;;;;5.15;2.22;;;45.80;1.00;;;;;;5087726;28;20191;-74
2022/08/10 11:15:20;;;;;;;3.10;2.00;;;45.70;1.00;;;;;;5081179;28;20645;-75
2022/08/10 11:17:56;;;;;;;4.75;2.58;;;46.10;1.00;;;;;;5087281;28;20171;-74
2022/08/10 11:20:31;;;;;;;3.85;2.10;;;46.40;1.00;;;;;;5087655;28;20698;-74
2022/08/10 11:23:16;;;;;;;5.75;2.30;;;47.30;1.00;;;;;;5079043;28;20293;-75
2022/08/10 11:25:51;;;;;;;2.85;1.80;;;47.20;1.00;;;;;;5086633;28;20209;-75
2022/08/10 11:28:24;;;;;;;6.25;2.17;;;47.50;1.00;;;;;;5085729;28;20178;-74
2022/08/10 11:31:00;;;;;;;8.32;2.38;;;47.90;1.00;;;;;;5081228;28;20260;-74
2022/08/10 11:33:31;;;;;;;7.10;2.22;;;47.80;1.00;;;;;;5084074;28;20190;-74
2022/08/10 11:36:15;;;;;;;3.88;2.10;;;47.80;1.00;;;;;;5099698;28;20394;-75
2022/08/10 11:39:31;;;;;;;5.65;2.17;;;47.10;1.00;;;;;;5079422;28;20246;-76
2022/08/10 11:42:05;;;;;;;3.67;2.10;;;45.90;1.00;;;;;;5078421;28;20203;-75
2022/08/10 11:44:33;;;;;;;5.47;2.20;;;46.20;1.00;;;;;;5081803;28;20676;-75
2022/08/10 11:47:08;;;;;;;4.07;2.15;;;46.90;1.00;;;;;;5082084;28;20224;-74
2022/08/10 11:49:54;;;;;;;7.45;2.30;;;47.10;1.00;;;;;;5085586;28;20175;-75
2022/08/10 11:52:47;;;;;;;6.68;2.40;;;47.20;1.00;;;;;;5074334;28;20254;-75
2022/08/10 11:55:18;;;;;;;4.70;1.95;;;47.50;1.00;;;;;;5074789;28;20176;-76
2022/08/10 11:57:45;;;;;;;5.50;2.47;;;47.40;1.00;;;;;;5084185;28;20233;-74
2022/08/10 12:00:11;;;;;;;4.93;2.00;;;46.60;1.00;;;;;;5084190;28;20227;-74
2022/08/10 12:02:46;;;;;;;4.38;2.25;;;46.20;1.00;;;;;;5089993;28;20233;-75
2022/08/10 12:05:17;;;;;;;4.38;2.30;;;46.40;1.00;;;;;;5093252;28;20205;-75
2022/08/10 12:07:50;;;;;;;6.63;1.90;;;46.40;1.00;;;;;;5085479;28;20630;-75
2022/08/10 12:10:17;;;;;;;8.77;2.75;;;46.30;1.00;;;;;;5079834;28;20187;-75
2022/08/10 12:13:20;;;;;;;5.38;2.20;;;46.60;1.00;;;;;;5085874;28;20223;-75
2022/08/10 12:16:06;;;;;;;3.22;2.13;;;46.90;1.00;;;;;;5082683;28;20190;-76
2022/08/10 12:18:44;;;;;;;3.47;2.22;;;47.10;1.00;;;;;;5093651;28;20178;-75
2022/08/10 12:21:17;;;;;;;5.60;2.40;;;47.80;1.00;;;;;;5086342;28;20186;-74
2022/08/10 12:23:49;;;;;;;4.63;2.00;;;48.20;1.00;;;;;;5086912;28;20168;-75
2022/08/10 12:26:24;;;;;;;3.33;2.17;;;48.20;1.00;;;;;;5074357;28;20184;-75
2022/08/10 12:29:28;;;;;;;8.57;2.10;;;48.20;1.00;;;;;;5089269;28;20210;-75
2022/08/10 12:32:10;;;;;;;8.38;2.45;;;48.60;1.00;;;;;;5072395;28;20759;-76
2022/08/10 12:34:51;;;;;;;7.40;2.10;;;49.20;1.00;;;;;;5082701;28;20262;-76
2022/08/10 12:37:28;;;;;;;2.78;2.00;;;48.90;1.00;;;;;;5082497;28;20337;-76
2022/08/10 12:40:07;;;;;;;2.72;2.10;;;48.30;1.00;;;;;;5092424;28;20194;-76
2022/08/10 12:42:44;;;;;;;7.43;2.17;;;47.90;1.00;;;;;;5083966;28;20198;-75
2022/08/10 12:45:21;;;;;;;4.18;2.20;;;48.60;1.00;;;;;;5091153;28;20451;-75
2022/08/10 12:47:56;;;;;;;3.35;2.10;;;48.80;1.00;;;;;;5084878;28;20318;-75
2022/08/10 12:50:45;;;;;;;4.18;2.30;;;48.20;1.00;;;;;;5083696;28;20266;-75
2022/08/10 12:53:32;;;;;;;3.72;2.20;;;47.40;1.00;;;;;;5091147;28;20256;-75
2022/08/10 12:56:00;;;;;;;3.80;2.22;;;46.80;1.00;;;;;;5090921;28;20174;-76
2022/08/10 12:58:27;;;;;;;3.75;2.20;;;46.80;1.00;;;;;;5096809;28;20172;-75
2022/08/10 13:00:54;;;;;;;4.13;2.10;;;47.10;1.00;;;;;;5088899;28;20673;-75
2022/08/10 13:03:23;;;;;;;4.97;2.45;;;47.10;1.00;;;;;;5098674;28;20301;-75
2022/08/10 13:05:50;;;;;;;8.30;2.70;;;48.30;1.00;;;;;;5091306;28;20594;-75
2022/08/10 13:11:04;;;;;;;4.97;2.25;;;49.60;1.00;;;;;;5078546;28;20229;-75
2022/08/10 13:13:36;;;;;;;5.65;2.30;;;48.80;1.00;;;;;;5092358;28;20199;-75
2022/08/10 13:16:03;;;;;;;4.35;2.00;;;47.90;1.00;;;;;;5087581;28;20176;-74
2022/08/10 13:18:37;;;;;;;3.67;2.10;;;47.20;1.00;;;;;;5088117;28;20310;-75
2022/08/10 13:21:10;;;;;;;7.20;2.67;;;46.20;1.00;;;;;;5083413;28;20355;-75
2022/08/10 13:24:14;;;;;;;3.75;2.40;;;45.40;1.00;;;;;;5088977;28;20178;-75
2022/08/10 13:26:51;;;;;;;2.95;2.20;;;45.40;1.00;;;;;;5079779;28;20191;-75
2022/08/10 13:29:18;;;;;;;6.78;2.67;;;45.00;1.00;;;;;;5090374;28;20217;-74
2022/08/10 13:31:48;;;;;;;5.07;2.58;;;45.10;1.00;;;;;;5089525;28;20276;-74
2022/08/10 13:34:23;;;;;;;3.15;2.30;;;45.50;1.00;;;;;;5103396;28;20173;-75